Time;durP1;ratioP1;P1;durP2;ratioP2;P2;SDS_P1;SDS_P2;PMS_P1;PMS_P2;Temp;Humidity;BMP_temperature;BMP_pressure;BME280_temperature;BME280_humidity;BME280_pressure;Samples;Min_cycle;Max_cycle;Signal;HPM_P1;HPM_P2
2022/03/10 00:44:24;;;;;;;22.63;16.27;;;6.20;44.00;;;-142.21;51.36;112049.66;5578012;25;20182;-76
2022/03/10 00:46:57;;;;;;;23.77;16.95;;;6.20;43.50;;;-142.21;51.59;112049.66;5588230;25;20234;-80
2022/03/10 00:49:24;;;;;;;23.95;15.75;;;6.20;43.00;;;-142.21;52.53;112049.66;5588750;25;20197;-78
2022/03/10 00:51:51;;;;;;;22.70;16.63;;;6.30;43.00;;;-142.21;52.30;112049.66;5589555;25;20222;-79
2022/03/10 00:54:18;;;;;;;23.15;15.98;;;6.30;43.20;;;-142.21;53.41;112049.66;5703464;25;20174;-79
2022/03/10 00:56:46;;;;;;;21.67;16.40;;;6.30;43.80;;;-142.21;53.61;112049.66;5746480;24;20225;-78
2022/03/10 00:59:13;;;;;;;23.02;16.80;;;6.30;43.30;;;-142.21;52.74;112049.66;5787334;24;20224;-78
2022/03/10 01:01:42;;;;;;;19.87;16.13;;;6.20;42.90;;;-142.21;52.62;112049.66;5780859;24;20718;-78
2022/03/10 01:04:09;;;;;;;21.97;16.40;;;6.30;43.10;;;-142.21;52.95;112049.66;5809730;24;20471;-80
2022/03/10 01:06:38;;;;;;;26.27;16.40;;;6.30;43.10;;;-142.21;52.22;112049.66;5897071;24;20423;-80
2022/03/10 01:09:06;;;;;;;21.40;15.88;;;6.30;43.20;;;-142.21;51.83;112049.66;5896629;24;20189;-80
2022/03/10 01:11:34;;;;;;;21.23;16.02;;;6.30;43.30;;;-142.21;51.46;112049.66;5897210;24;20607;-79
2022/03/10 01:14:01;;;;;;;20.88;16.17;;;6.30;42.90;;;-142.21;51.04;112049.66;5896393;24;20280;-80
2022/03/10 01:16:32;;;;;;;23.50;16.97;;;6.30;43.00;;;-142.21;52.00;112049.66;5915199;23;20189;-80
2022/03/10 01:19:00;;;;;;;21.20;17.15;;;6.40;43.10;;;-142.21;51.24;112049.66;6010598;23;20790;-80
2022/03/10 01:21:28;;;;;;;24.08;17.30;;;6.30;43.10;;;-142.21;51.89;112049.66;6010489;23;20260;-80
2022/03/10 01:23:55;;;;;;;19.27;14.55;;;6.30;43.10;;;-142.21;51.65;112049.66;6011119;23;20628;-80
2022/03/10 01:26:23;;;;;;;22.98;16.10;;;6.20;43.20;;;-142.21;53.04;112049.66;6009356;23;20225;-79
2022/03/10 01:28:50;;;;;;;22.75;17.23;;;6.20;43.60;;;-142.21;52.54;112049.66;6010112;23;20187;-80
2022/03/10 01:31:18;;;;;;;22.92;15.43;;;6.20;43.50;;;-142.21;53.18;112049.66;6009554;23;20226;-80
2022/03/10 01:33:45;;;;;;;19.73;14.95;;;6.10;43.10;;;-142.21;51.23;112049.66;6010277;23;20243;-80
2022/03/10 01:36:14;;;;;;;21.88;16.05;;;6.10;42.80;;;-142.21;51.54;112049.66;6014228;23;20516;-80
2022/03/10 01:38:42;;;;;;;22.42;16.33;;;6.10;42.90;;;-142.21;52.98;112049.66;6039212;23;20190;-80
2022/03/10 01:41:10;;;;;;;20.45;15.82;;;6.00;43.40;;;-142.21;52.63;112049.66;6038343;23;20202;-80
2022/03/10 01:43:58;;;;;;;22.20;16.02;;;5.90;43.30;;;-142.21;51.20;112049.66;6038126;23;20228;-80
2022/03/10 01:46:26;;;;;;;19.85;15.40;;;6.00;43.70;;;-142.21;53.82;112049.66;6038549;23;20166;-79
2022/03/10 01:48:53;;;;;;;22.80;16.63;;;5.80;44.00;;;-142.21;52.93;112049.66;6038730;23;20180;-80
2022/03/10 01:51:23;;;;;;;19.40;15.00;;;5.80;43.90;;;-142.21;52.85;112049.66;6013717;23;20288;-80
2022/03/10 01:53:51;;;;;;;21.13;16.42;;;5.80;43.90;;;-142.21;53.07;112049.66;6038750;23;20273;-78
2022/03/10 01:56:19;;;;;;;20.75;15.88;;;5.80;43.90;;;-142.21;52.58;112049.66;6038430;23;20242;-78
2022/03/10 01:58:47;;;;;;;20.75;15.43;;;5.80;43.60;;;-142.21;53.83;112049.66;6038139;23;20473;-80
2022/03/10 02:01:15;;;;;;;19.17;15.25;;;5.80;43.90;;;-142.21;55.64;112049.66;6013642;23;20188;-79
2022/03/10 02:03:43;;;;;;;19.30;15.35;;;5.80;44.20;;;-142.21;54.47;112049.66;6037113;23;20181;-79
2022/03/10 02:06:11;;;;;;;19.33;15.52;;;5.70;44.20;;;-142.21;54.48;112049.66;6013370;23;20182;-78
2022/03/10 02:11:27;;;;;;;22.85;16.85;;;5.70;43.90;;;-142.21;54.67;112049.66;6038746;23;20213;-79
2022/03/10 02:13:55;;;;;;;22.73;16.17;;;5.70;44.20;;;-142.21;54.99;112049.66;6038257;23;20182;-80
2022/03/10 02:19:10;;;;;;;24.15;16.33;;;5.60;44.20;;;-142.21;54.70;112049.66;5996722;23;20701;-78
2022/03/10 02:21:38;;;;;;;20.77;16.23;;;5.50;44.60;;;-142.21;54.85;112049.66;6038872;23;20221;-81
2022/03/10 02:24:06;;;;;;;19.58;15.35;;;5.40;45.00;;;-142.21;53.45;112049.66;6037058;23;20228;-79
2022/03/10 02:26:34;;;;;;;20.13;15.90;;;5.40;44.70;;;-142.21;54.27;112049.66;6038456;23;20230;-79
2022/03/10 02:29:02;;;;;;;21.67;15.65;;;5.50;44.60;;;-142.21;53.94;112049.66;6037767;23;20492;-78
2022/03/10 02:31:29;;;;;;;21.92;16.05;;;5.50;44.70;;;-142.21;53.66;112049.66;6038837;23;20289;-78
2022/03/10 02:33:56;;;;;;;21.45;16.08;;;5.60;44.50;;;-142.21;53.45;112049.66;6038066;23;20186;-79
2022/03/10 02:36:24;;;;;;;19.75;15.15;;;5.40;44.70;;;-142.21;52.89;112049.66;6038200;23;20212;-80
2022/03/10 02:38:51;;;;;;;20.48;15.85;;;5.40;44.80;;;-142.21;53.03;112049.66;6038577;23;20170;-80
2022/03/10 02:41:19;;;;;;;20.83;16.10;;;5.30;44.90;;;-142.21;53.76;112049.66;6038993;23;20198;-80
2022/03/10 02:43:47;;;;;;;18.83;15.07;;;5.30;44.70;;;-142.21;52.77;112049.66;6040103;23;20212;-79
2022/03/10 02:46:14;;;;;;;20.50;14.93;;;5.30;44.80;;;-142.21;52.62;112049.66;6039945;23;20261;-80
2022/03/10 02:48:41;;;;;;;21.10;16.17;;;5.30;45.20;;;-142.21;53.82;112049.66;6040217;23;20217;-80
2022/03/10 02:51:08;;;;;;;18.98;15.45;;;5.30;44.30;;;-142.21;53.75;112049.66;6039254;23;20658;-80
2022/03/10 02:53:35;;;;;;;17.50;14.52;;;5.30;44.30;;;-142.21;54.33;112049.66;6040944;23;20216;-77
2022/03/10 02:56:02;;;;;;;22.20;15.75;;;5.40;44.10;;;-142.21;54.02;112049.66;6040568;23;20213;-80
2022/03/10 02:58:31;;;;;;;21.80;15.95;;;5.40;44.20;;;-142.21;53.39;112049.66;6040002;23;20182;-78
2022/03/10 03:00:58;;;;;;;27.60;15.70;;;5.30;44.30;;;-142.21;55.06;112049.66;6040514;23;20223;-80
2022/03/10 03:03:25;;;;;;;21.52;15.13;;;5.30;45.00;;;-142.21;54.62;112049.66;6039188;23;20217;-79
2022/03/10 03:05:52;;;;;;;21.08;15.20;;;5.30;44.60;;;-142.21;54.78;112049.66;6039863;23;20189;-79
2022/03/10 03:08:20;;;;;;;22.35;15.45;;;5.30;44.60;;;-142.21;55.16;112049.66;6039260;23;20214;-79
2022/03/10 03:10:47;;;;;;;21.08;15.43;;;5.20;44.70;;;-142.21;54.86;112049.66;6040185;23;20566;-81
2022/03/10 03:13:14;;;;;;;20.08;16.17;;;5.20;44.80;;;-142.21;54.65;112049.66;6040613;23;20202;-75
2022/03/10 03:15:43;;;;;;;21.98;15.43;;;5.10;44.60;;;-142.21;55.60;112049.66;6040170;23;20178;-79
2022/03/10 03:18:10;;;;;;;22.73;16.17;;;5.20;44.50;;;-142.21;55.00;112049.66;5991009;23;20661;-76
2022/03/10 03:20:37;;;;;;;21.05;15.45;;;5.10;44.70;;;-142.21;54.81;112049.66;6039666;23;20660;-78
2022/03/10 03:23:04;;;;;;;20.83;15.43;;;5.00;44.80;;;-142.21;54.75;112049.66;6039918;23;20261;-78
2022/03/10 03:25:31;;;;;;;22.65;14.65;;;5.00;45.00;;;-142.21;53.91;112049.66;6039687;23;20268;-80
2022/03/10 03:28:00;;;;;;;20.77;15.27;;;5.00;45.10;;;-142.21;55.25;112049.66;6040752;23;20217;-78
2022/03/10 03:30:27;;;;;;;20.70;14.60;;;4.90;45.60;;;-142.21;55.19;112049.66;6039697;23;20260;-75
2022/03/10 03:32:56;;;;;;;21.45;15.80;;;4.80;45.90;;;-142.21;54.77;112049.66;6039846;23;20209;-76
2022/03/10 03:35:23;;;;;;;19.73;15.27;;;4.80;45.70;;;-142.21;55.86;112049.66;6045025;23;20224;-74
2022/03/10 03:37:52;;;;;;;21.15;15.27;;;4.70;45.70;;;-142.21;57.26;112049.66;6046044;23;20701;-78
2022/03/10 03:40:19;;;;;;;23.27;15.98;;;4.70;45.80;;;-142.21;57.18;112049.66;6040625;23;20206;-77
2022/03/10 03:42:46;;;;;;;21.38;15.82;;;4.80;45.90;;;-142.21;58.56;112049.66;6044750;23;20238;-77
2022/03/10 03:45:15;;;;;;;19.52;15.13;;;4.80;45.70;;;-142.21;58.81;112049.66;6049331;23;20216;-75
2022/03/10 03:47:42;;;;;;;21.50;15.75;;;4.80;45.80;;;-142.21;57.63;112049.66;6048052;23;20186;-77
2022/03/10 03:50:13;;;;;;;21.20;16.05;;;4.80;45.80;;;-142.21;56.98;112049.66;6039988;23;20265;-79
2022/03/10 03:52:40;;;;;;;19.48;15.00;;;4.70;45.80;;;-142.21;56.37;112049.66;6040254;23;20237;-80
2022/03/10 03:55:08;;;;;;;20.15;14.68;;;4.80;45.50;;;-142.21;56.36;112049.66;6038922;23;20182;-79
2022/03/10 03:57:36;;;;;;;22.25;15.40;;;4.70;45.60;;;-142.21;57.09;112049.66;6040379;23;20193;-79
2022/03/10 04:00:04;;;;;;;21.60;15.05;;;4.70;45.60;;;-142.21;57.21;112049.66;6039159;23;20264;-77
2022/03/10 04:02:32;;;;;;;20.55;15.85;;;4.80;45.70;;;-142.21;56.80;112049.66;6039600;23;20257;-77
2022/03/10 04:04:59;;;;;;;20.85;15.10;;;4.70;45.60;;;-142.21;57.10;112049.66;6038829;23;20208;-79
2022/03/10 04:07:28;;;;;;;22.45;15.70;;;4.80;45.50;;;-142.21;56.78;112049.66;6040160;23;20260;-79
2022/03/10 04:09:55;;;;;;;18.95;14.65;;;4.70;45.70;;;-142.21;56.96;112049.66;6039151;23;20257;-76
2022/03/10 04:12:22;;;;;;;21.20;14.73;;;4.60;46.00;;;-142.21;57.46;112049.66;6040293;23;20244;-77
2022/03/10 04:14:49;;;;;;;22.27;16.45;;;4.60;46.00;;;-142.21;56.29;112049.66;6041389;23;20185;-73
2022/03/10 04:17:17;;;;;;;19.27;14.75;;;4.50;46.00;;;-142.21;56.61;112049.66;6056777;23;20847;-74
2022/03/10 04:19:44;;;;;;;21.35;15.48;;;4.40;45.90;;;-142.21;57.08;112049.66;6057161;23;20204;-75
2022/03/10 04:22:11;;;;;;;23.13;15.57;;;4.50;46.00;;;-142.21;57.30;112049.66;6009284;23;20182;-76
2022/03/10 04:24:40;;;;;;;19.45;14.95;;;4.40;46.20;;;-142.21;57.57;112049.66;6028459;23;20189;-81
2022/03/10 04:27:07;;;;;;;22.60;16.13;;;4.40;46.60;;;-142.21;56.75;112049.66;6038932;23;20265;-75
2022/03/10 04:29:34;;;;;;;24.08;15.43;;;4.30;46.60;;;-142.21;56.60;112049.66;6039900;23;20236;-77
2022/03/10 04:32:01;;;;;;;22.70;16.73;;;4.30;46.60;;;-142.21;58.00;112049.66;6039885;23;20281;-80
2022/03/10 04:34:31;;;;;;;22.13;15.60;;;4.30;46.40;;;-142.21;57.95;112049.66;6038748;23;20189;-77
2022/03/10 04:36:58;;;;;;;23.55;16.05;;;4.20;46.70;;;-142.21;57.61;112049.66;6038884;23;20285;-79
2022/03/10 04:39:25;;;;;;;22.83;15.80;;;4.30;46.70;;;-142.21;57.38;112049.66;6038878;23;20240;-79
2022/03/10 04:41:54;;;;;;;22.75;15.00;;;4.30;46.70;;;-142.21;61.29;112049.66;6039510;23;20257;-78
2022/03/10 04:44:21;;;;;;;19.42;14.88;;;4.30;46.70;;;-142.21;59.96;112049.66;6038913;23;20213;-78
2022/03/10 04:46:48;;;;;;;22.20;16.20;;;4.40;46.60;;;-142.21;59.23;112049.66;6038853;23;20243;-77
2022/03/10 04:49:15;;;;;;;18.83;14.60;;;4.40;46.40;;;-142.21;58.73;112049.66;6039545;23;20238;-77
2022/03/10 04:51:42;;;;;;;22.38;15.52;;;4.40;46.20;;;-142.21;60.18;112049.66;6038715;23;20265;-81
2022/03/10 04:54:10;;;;;;;22.08;16.38;;;4.40;46.20;;;-142.21;62.63;112049.66;6039661;23;20225;-78
2022/03/10 04:56:37;;;;;;;22.00;15.82;;;4.40;47.00;;;-142.21;62.25;112049.66;6013793;23;20261;-78
2022/03/10 04:59:05;;;;;;;21.73;15.63;;;4.50;47.40;;;-142.21;62.39;112049.66;6039203;23;20556;-77
2022/03/10 05:01:32;;;;;;;19.90;15.85;;;4.40;47.50;;;-142.21;62.94;112049.66;6038568;23;20230;-79
2022/03/10 05:04:00;;;;;;;20.83;15.70;;;4.40;46.70;;;-142.21;62.43;112049.66;6038750;23;20242;-76
2022/03/10 05:06:27;;;;;;;21.85;15.13;;;4.40;46.80;;;-142.21;60.72;112049.66;6039095;23;20193;-77
2022/03/10 05:08:54;;;;;;;19.73;15.10;;;4.30;47.30;;;-142.21;61.41;112049.66;6039240;23;20210;-78
2022/03/10 05:11:21;;;;;;;21.20;15.50;;;4.30;47.20;;;-142.21;60.40;112049.66;6039225;23;20638;-77
2022/03/10 05:13:48;;;;;;;19.90;15.05;;;4.20;47.00;;;-142.21;62.70;112049.66;6038655;23;20228;-79
2022/03/10 05:16:17;;;;;;;21.52;15.88;;;4.20;47.10;;;-142.21;63.26;112049.66;6039431;23;20188;-78
2022/03/10 05:18:45;;;;;;;22.25;15.98;;;4.20;47.20;;;-142.21;62.25;112049.66;6038414;23;20217;-79
2022/03/10 05:21:12;;;;;;;21.60;16.15;;;4.30;46.90;;;-142.21;62.25;112049.66;6039664;23;20186;-79
2022/03/10 05:23:39;;;;;;;21.52;14.95;;;4.20;46.90;;;-142.21;61.72;112049.66;6038753;23;20662;-79
2022/03/10 05:26:06;;;;;;;20.23;14.15;;;4.20;46.90;;;-142.21;61.55;112049.66;6039272;23;20270;-77
2022/03/10 05:28:34;;;;;;;22.40;15.73;;;4.10;46.90;;;-142.21;62.52;112049.66;6038851;23;20726;-78
2022/03/10 05:31:01;;;;;;;22.73;15.80;;;4.20;47.20;;;-142.21;62.04;112049.66;6038430;23;20251;-77
2022/03/10 05:33:29;;;;;;;22.80;16.85;;;4.10;47.20;;;-142.21;62.39;112049.66;6038940;23;20281;-77
2022/03/10 05:35:57;;;;;;;22.40;15.57;;;4.10;47.10;;;-142.21;62.30;112049.66;6038014;23;20193;-78
2022/03/10 05:38:24;;;;;;;22.00;16.05;;;4.10;47.20;;;-142.21;62.62;112049.66;6038639;23;20288;-79
2022/03/10 05:40:51;;;;;;;21.63;16.35;;;4.00;47.20;;;-142.21;63.90;112049.66;6038429;23;20616;-77
2022/03/10 05:43:18;;;;;;;22.48;16.77;;;4.00;47.50;;;-142.21;63.56;112049.66;6038772;23;20278;-77
2022/03/10 05:45:45;;;;;;;26.08;16.38;;;4.00;48.40;;;-142.21;62.88;112049.66;6038871;23;20265;-79
2022/03/10 05:48:13;;;;;;;25.05;17.00;;;4.00;47.50;;;-142.21;62.87;112049.66;6038043;23;20186;-79
2022/03/10 05:50:41;;;;;;;22.60;16.10;;;4.10;47.50;;;-142.21;62.55;112049.66;6039254;23;20250;-77
2022/03/10 05:53:08;;;;;;;23.73;17.17;;;4.00;47.40;;;-142.21;63.62;112049.66;6037939;23;20285;-78
2022/03/10 05:55:36;;;;;;;23.00;15.98;;;4.00;47.30;;;-142.21;63.06;112049.66;6039239;23;20485;-79
2022/03/10 05:58:04;;;;;;;23.60;17.02;;;4.00;47.50;;;-142.21;63.15;112049.66;6039553;23;20522;-75
2022/03/10 06:00:31;;;;;;;23.70;16.80;;;4.00;47.60;;;-142.21;61.74;112049.66;6039251;23;20213;-78
2022/03/10 06:02:58;;;;;;;23.90;17.27;;;4.00;48.30;;;-142.21;62.38;112049.66;6040198;23;20210;-77
2022/03/10 06:05:26;;;;;;;23.60;16.80;;;4.00;47.70;;;-142.21;64.02;112049.66;6039854;23;20556;-77
2022/03/10 06:07:54;;;;;;;22.67;17.10;;;4.00;47.80;;;-142.21;64.16;112049.66;6039073;23;20216;-76
2022/03/10 06:10:22;;;;;;;26.38;17.33;;;4.10;48.00;;;-142.21;63.78;112049.66;6037772;23;20217;-77
2022/03/10 06:12:49;;;;;;;23.92;17.58;;;4.10;47.80;;;-142.21;65.31;112049.66;6038987;23;20651;-77
2022/03/10 06:15:17;;;;;;;30.08;16.75;;;4.00;48.20;;;-142.21;64.56;112049.66;6038111;23;20190;-78
2022/03/10 06:17:44;;;;;;;25.45;17.15;;;4.00;48.50;;;-142.21;66.06;112049.66;6038047;23;20186;-77
2022/03/10 06:20:12;;;;;;;25.17;17.40;;;4.00;48.30;;;-142.21;65.20;112049.66;6038642;23;20217;-79
2022/03/10 06:22:39;;;;;;;22.75;17.50;;;4.00;48.30;;;-142.21;64.68;112049.66;6037606;23;20181;-77
2022/03/10 06:25:09;;;;;;;25.27;17.25;;;4.10;48.40;;;-142.21;65.98;112049.66;6038490;23;20212;-77
2022/03/10 06:27:43;;;;;;;20.60;15.63;;;4.20;48.60;;;-142.21;65.78;112049.66;6037972;23;20192;-78
2022/03/10 06:30:12;;;;;;;19.95;16.27;;;4.30;49.10;;;-142.21;65.83;112049.66;6038691;23;20163;-78
2022/03/10 06:32:39;;;;;;;21.88;16.40;;;4.30;48.70;;;-142.21;65.78;112049.66;6038224;23;20202;-78
2022/03/10 06:35:08;;;;;;;20.95;16.10;;;4.50;48.20;;;-142.21;65.87;112049.66;6038733;23;20254;-78
2022/03/10 06:37:36;;;;;;;21.10;15.98;;;4.80;47.90;;;-142.21;66.04;112049.66;6037866;23;20210;-79
2022/03/10 06:40:07;;;;;;;22.08;16.27;;;5.10;47.40;;;-142.21;64.81;112049.66;6039210;23;20209;-78
2022/03/10 06:42:35;;;;;;;20.65;16.23;;;5.30;47.30;;;-142.21;64.36;112049.66;6038282;23;20169;-79
2022/03/10 06:45:02;;;;;;;21.40;15.85;;;5.40;46.80;;;-142.21;63.76;112049.66;6038909;23;20268;-78
2022/03/10 06:47:35;;;;;;;21.70;17.27;;;5.50;46.60;;;-142.21;63.66;112049.66;6038899;23;20446;-77
2022/03/10 06:50:04;;;;;;;24.95;16.92;;;5.50;46.30;;;-142.21;63.17;112049.66;6039049;23;20186;-78
2022/03/10 06:52:32;;;;;;;24.05;17.10;;;5.60;46.60;;;-142.21;64.21;112049.66;6038816;23;20205;-75
2022/03/10 06:55:00;;;;;;;24.75;17.92;;;5.40;47.40;;;-142.21;64.53;112049.66;6038516;23;20201;-76
2022/03/10 06:57:29;;;;;;;26.20;18.88;;;5.60;46.70;;;-142.21;65.34;112049.66;6038789;23;20631;-78
2022/03/10 06:59:56;;;;;;;26.55;17.67;;;5.50;46.80;;;-142.21;65.86;112049.66;6038466;23;20242;-78
2022/03/10 07:02:24;;;;;;;25.52;18.63;;;5.70;47.00;;;-142.21;66.41;112049.66;6039335;23;20198;-78
2022/03/10 07:04:51;;;;;;;22.02;17.35;;;5.80;47.00;;;-142.21;65.70;112049.66;6038092;23;20190;-78
2022/03/10 07:07:18;;;;;;;23.48;17.60;;;5.90;46.70;;;-142.21;64.61;112049.66;6039018;23;20186;-77
2022/03/10 07:09:45;;;;;;;23.95;19.48;;;6.00;46.30;;;-142.21;65.17;112049.66;6038964;23;20185;-75
2022/03/10 07:12:12;;;;;;;22.42;17.02;;;6.20;46.80;;;-142.21;65.05;112049.66;6039179;23;20179;-74
2022/03/10 07:14:41;;;;;;;23.70;16.60;;;6.80;46.60;;;-142.21;64.76;112049.66;6039267;23;20242;-74
2022/03/10 07:17:08;;;;;;;23.73;17.93;;;7.40;45.90;;;-142.21;63.29;112049.66;6038540;23;20481;-74
2022/03/10 07:19:35;;;;;;;23.27;17.00;;;8.00;45.20;;;-142.21;63.71;112049.66;6038703;23;20446;-75
2022/03/10 07:22:03;;;;;;;24.53;17.07;;;8.10;44.40;;;-142.21;61.25;112049.66;6038684;23;20549;-75
2022/03/10 07:24:31;;;;;;;21.23;16.40;;;8.50;44.10;;;-142.21;60.69;112049.66;6038780;23;20418;-80
2022/03/10 07:27:01;;;;;;;21.30;17.47;;;9.40;42.60;;;-142.21;60.90;112049.66;6037542;23;20418;-79
2022/03/10 07:29:28;;;;;;;21.27;16.70;;;9.50;41.80;;;-142.21;59.49;112049.66;6039220;23;20737;-79
2022/03/10 07:31:57;;;;;;;23.43;18.80;;;9.20;42.30;;;-142.21;59.39;112049.66;6040596;23;20414;-75
2022/03/10 07:34:24;;;;;;;18.23;16.10;;;9.90;42.10;;;-142.21;60.32;112049.66;6039567;23;20457;-80
2022/03/10 07:36:52;;;;;;;22.20;18.17;;;10.20;41.00;;;-142.21;60.53;112049.66;6040756;23;20446;-78
2022/03/10 07:39:19;;;;;;;27.90;18.90;;;10.10;40.90;;;-142.21;59.53;112049.66;6040364;23;20453;-76
2022/03/10 07:41:46;;;;;;;22.83;18.70;;;9.90;41.60;;;-142.21;57.74;112049.66;6039948;23;20448;-77
2022/03/10 07:44:13;;;;;;;24.07;19.47;;;9.90;41.30;;;-142.21;58.20;112049.66;6039914;23;20409;-77
2022/03/10 07:46:42;;;;;;;27.00;19.47;;;10.00;40.40;;;-142.21;57.43;112049.66;6041578;23;20449;-79
2022/03/10 07:49:11;;;;;;;22.37;18.67;;;9.90;41.60;;;-142.21;57.62;112049.66;6040884;23;20403;-80
2022/03/10 07:51:42;;;;;;;24.17;18.70;;;9.70;41.90;;;-142.21;58.32;112049.66;6040007;23;21018;-78
2022/03/10 07:54:10;;;;;;;22.37;17.73;;;9.60;42.50;;;-142.21;58.46;112049.66;6040743;23;20442;-79
2022/03/10 07:56:37;;;;;;;22.53;18.90;;;9.40;42.70;;;-142.21;57.33;112049.66;6039612;23;20414;-80
2022/03/10 07:59:05;;;;;;;23.87;18.20;;;9.30;42.70;;;-142.21;56.06;112049.66;6040163;23;20398;-77
2022/03/10 08:01:32;;;;;;;23.43;18.13;;;9.30;43.10;;;-142.21;55.34;112049.66;6039757;23;20960;-80
2022/03/10 08:04:00;;;;;;;22.87;17.23;;;9.50;43.20;;;-142.21;55.05;112049.66;6040059;23;20757;-80
2022/03/10 08:06:29;;;;;;;22.03;17.67;;;9.80;43.10;;;-142.21;55.09;112049.66;6039520;23;20425;-80
2022/03/10 08:08:56;;;;;;;21.73;17.47;;;10.00;41.80;;;-142.21;54.90;112049.66;6039995;23;20918;-80
2022/03/10 08:11:23;;;;;;;24.00;17.57;;;10.60;41.30;;;-142.21;56.04;112049.66;6040112;23;20429;-80
2022/03/10 08:13:51;;;;;;;28.73;16.53;;;10.60;41.10;;;-142.21;55.13;112049.66;6039608;23;20485;-80
2022/03/10 08:16:18;;;;;;;22.70;17.33;;;10.60;40.70;;;-142.21;53.75;112049.66;6039885;23;20421;-79
2022/03/10 08:18:45;;;;;;;23.90;17.73;;;11.00;40.60;;;-142.21;54.21;112049.66;6039540;23;20466;-80
2022/03/10 08:21:12;;;;;;;21.53;17.10;;;11.10;40.40;;;-142.21;53.39;112049.66;6039755;23;20403;-79
2022/03/10 08:23:41;;;;;;;22.93;18.00;;;11.20;40.20;;;-142.21;52.43;112049.66;6039174;23;20472;-80
2022/03/10 08:26:09;;;;;;;19.60;16.87;;;11.20;39.90;;;-142.21;52.25;112049.66;6039690;23;20402;-79
2022/03/10 08:28:37;;;;;;;21.87;17.73;;;11.20;40.00;;;-142.21;52.14;112049.66;6039627;23;20470;-78
2022/03/10 08:31:05;;;;;;;23.57;17.27;;;11.20;40.20;;;-142.21;52.63;112049.66;6040062;23;20414;-80
2022/03/10 08:33:32;;;;;;;23.13;17.13;;;11.20;40.20;;;-142.21;51.36;112049.66;6039591;23;20461;-79
2022/03/10 08:36:00;;;;;;;21.23;17.43;;;11.20;40.30;;;-142.21;51.18;112049.66;6039191;23;20406;-79
2022/03/10 08:38:29;;;;;;;20.47;16.27;;;11.30;40.40;;;-142.21;52.25;112049.66;6039661;23;20434;-79
2022/03/10 08:40:59;;;;;;;18.00;14.93;;;11.30;41.20;;;-142.21;50.33;112049.66;6038905;23;20437;-80
2022/03/10 08:43:29;;;;;;;18.83;15.27;;;11.40;40.10;;;-142.21;49.62;112049.66;6039537;23;20903;-78
2022/03/10 08:45:56;;;;;;;17.43;14.87;;;11.60;40.10;;;-142.21;50.40;112049.66;6039141;23;20380;-79
2022/03/10 08:48:24;;;;;;;19.90;15.40;;;11.90;39.80;;;-142.21;49.65;112049.66;6039578;23;20450;-79
2022/03/10 08:50:51;;;;;;;18.80;15.13;;;12.10;39.40;;;-142.21;49.29;112049.66;6039278;23;20482;-79
2022/03/10 08:53:19;;;;;;;19.97;15.57;;;12.30;39.30;;;-142.21;48.47;112049.66;6038389;23;20457;-79
2022/03/10 08:55:46;;;;;;;19.80;15.17;;;12.40;39.30;;;-142.21;48.94;112049.66;6039769;23;20478;-79
2022/03/10 08:58:15;;;;;;;17.53;13.73;;;12.40;39.20;;;-142.21;46.79;112049.66;6039042;23;20411;-79
2022/03/10 09:00:50;;;;;;;17.73;13.97;;;12.60;38.20;;;-142.21;46.38;112049.66;6039703;23;20482;-78
2022/03/10 09:03:18;;;;;;;15.23;13.23;;;12.80;38.00;;;-142.21;45.94;112049.66;6039254;23;20390;-78
2022/03/10 09:05:45;;;;;;;15.60;12.73;;;13.20;37.70;;;-142.21;45.07;112049.66;6039400;23;20394;-79
2022/03/10 09:08:13;;;;;;;16.17;13.23;;;13.80;37.60;;;-142.21;44.41;112049.66;6038494;23;20415;-79
2022/03/10 09:10:41;;;;;;;15.63;13.17;;;14.20;37.00;;;-142.21;44.24;112049.66;6039693;23;20418;-78
2022/03/10 09:13:08;;;;;;;14.63;12.57;;;14.90;35.80;;;-142.21;43.54;112049.66;6039245;23;20434;-80
2022/03/10 09:15:37;;;;;;;12.43;11.03;;;15.90;35.20;;;-142.21;41.75;112049.66;6038920;23;20406;-79
2022/03/10 09:18:04;;;;;;;15.37;12.63;;;17.30;33.30;;;-142.21;41.30;112049.66;6039171;23;20435;-81
2022/03/10 09:20:32;;;;;;;11.73;10.53;;;18.90;32.00;;;-142.21;41.45;112049.66;6038533;23;20256;-80
2022/03/10 09:22:59;;;;;;;12.40;10.63;;;20.60;31.00;;;-142.21;38.90;112049.66;6038845;23;20182;-78
2022/03/10 09:25:26;;;;;;;14.20;10.43;;;21.40;28.20;;;-142.21;40.73;112049.66;6038859;23;20241;-79
2022/03/10 09:27:54;;;;;;;10.30;9.30;;;21.60;28.10;;;-142.21;38.60;112049.66;6039024;23;20206;-79
2022/03/10 09:30:21;;;;;;;10.67;9.13;;;21.90;26.80;;;-142.21;35.95;112049.66;6038879;23;20237;-78
2022/03/10 09:32:50;;;;;;;11.23;10.13;;;22.70;26.60;;;-142.21;38.12;112049.66;6038043;23;20483;-75
2022/03/10 09:35:18;;;;;;;10.77;9.73;;;23.80;26.50;;;-142.21;36.70;112049.66;6038703;23;20204;-78
2022/03/10 09:37:46;;;;;;;9.53;8.40;;;25.00;25.80;;;-142.21;36.62;112049.66;6037805;23;20247;-77
2022/03/10 09:40:14;;;;;;;10.63;9.53;;;25.90;25.10;;;-142.21;34.73;112049.66;6038718;23;20674;-78
2022/03/10 09:42:43;;;;;;;10.40;9.33;;;26.80;23.20;;;-142.21;36.04;112049.66;6038179;23;20221;-76
2022/03/10 09:45:13;;;;;;;11.30;10.20;;;27.60;23.70;;;-142.21;35.79;112049.66;6039324;23;20242;-77
2022/03/10 09:47:42;;;;;;;10.40;9.30;;;28.50;23.00;;;-142.21;33.88;112049.66;6038244;23;20183;-80
2022/03/10 09:50:14;;;;;;;8.50;7.70;;;28.60;21.20;;;-142.21;31.46;112049.66;6038905;23;20189;-79
2022/03/10 09:52:43;;;;;;;7.80;7.00;;;28.90;20.90;;;-142.21;31.03;112049.66;6037712;23;20202;-77
2022/03/10 09:55:13;;;;;;;7.80;7.10;;;28.90;20.10;;;-142.21;31.98;112049.66;6038676;23;20642;-78
2022/03/10 09:57:43;;;;;;;8.70;7.90;;;28.80;20.40;;;-142.21;31.39;112049.66;6039213;23;20221;-76
2022/03/10 10:00:14;;;;;;;11.47;7.70;;;29.40;20.60;;;-142.21;30.02;112049.66;6039110;23;20196;-76
2022/03/10 10:02:42;;;;;;;9.00;8.20;;;30.10;20.10;;;-142.21;30.90;112049.66;6038920;23;20483;-76
2022/03/10 10:05:26;;;;;;;9.07;8.20;;;30.50;19.60;;;-142.21;30.65;112049.66;6038299;23;20205;-77
2022/03/10 10:08:08;;;;;;;8.50;7.60;;;30.00;18.70;;;-142.21;29.14;112049.66;6038180;23;20172;-77
2022/03/10 10:10:39;;;;;;;8.40;7.70;;;29.60;18.80;;;-142.21;28.95;112049.66;6039134;23;20167;-79
2022/03/10 10:13:07;;;;;;;8.10;7.40;;;29.20;19.40;;;-142.21;28.38;112049.66;6038365;23;20603;-78
2022/03/10 10:15:37;;;;;;;8.90;8.10;;;29.20;18.70;;;-142.21;28.00;112049.66;6038980;23;20179;-78
2022/03/10 10:18:06;;;;;;;9.03;7.50;;;29.20;19.00;;;-142.21;25.25;112049.66;6038057;23;20617;-77
2022/03/10 10:20:47;;;;;;;9.00;8.10;;;29.60;19.30;;;-142.21;25.37;112049.66;6038479;23;20194;-79
2022/03/10 10:23:20;;;;;;;8.23;7.53;;;30.00;18.30;;;-142.21;24.06;112049.66;6038438;23;20522;-78
2022/03/10 10:25:53;;;;;;;8.47;7.40;;;30.10;18.90;;;-142.21;24.32;112049.66;6039261;23;20213;-79
2022/03/10 10:28:27;;;;;;;8.87;7.40;;;30.30;18.70;;;-142.21;22.78;112049.66;6038047;23;20245;-76
2022/03/10 10:30:58;;;;;;;8.73;7.27;;;30.20;18.60;;;-142.21;22.18;112049.66;6039208;23;20200;-77
2022/03/10 10:33:27;;;;;;;7.33;6.33;;;30.60;18.80;;;-142.21;21.17;112049.66;6038108;23;20173;-76
2022/03/10 10:36:14;;;;;;;7.57;6.87;;;30.60;18.30;;;-142.21;20.89;112049.66;6038756;23;20181;-77
2022/03/10 10:38:43;;;;;;;7.53;6.73;;;29.60;17.70;;;-142.21;20.35;112049.66;6038581;23;20245;-79
2022/03/10 10:41:23;;;;;;;6.83;6.23;;;29.70;18.50;;;-142.21;20.31;112049.66;6039124;23;20283;-78
2022/03/10 10:43:54;;;;;;;7.43;6.73;;;30.20;18.40;;;-142.21;20.42;112049.66;6038944;23;20200;-77
2022/03/10 10:46:28;;;;;;;7.33;6.40;;;30.00;17.70;;;-142.21;20.76;112049.66;6038771;23;20251;-76